createdAt,value
2018-07-04T00:00:35.496Z,90.94
2018-07-04T00:01:35.486Z,89.71
2018-07-04T00:02:35.479Z,89.51
2018-07-04T00:03:35.461Z,90.01
2018-07-04T00:04:35.479Z,89.51
2018-07-04T00:05:35.441Z,90.53
2018-07-04T00:06:35.427Z,91.55
2018-07-04T00:07:35.426Z,90.32
2018-07-04T00:08:35.410Z,90.53
2018-07-04T00:09:35.400Z,90.63
2018-07-04T00:10:35.407Z,90.63
2018-07-04T00:11:35.377Z,89.81
2018-07-04T00:12:35.365Z,91.14
2018-07-04T00:13:35.363Z,90.94
2018-07-04T00:14:35.351Z,90.63
2018-07-04T00:15:35.337Z,92.26
2018-07-04T00:16:35.324Z,91.96
2018-07-04T00:17:35.311Z,91.44
2018-07-04T00:18:35.297Z,90.83
2018-07-04T00:19:35.294Z,90.22
2018-07-04T00:20:35.306Z,91.44
2018-07-04T00:21:35.275Z,91.14
2018-07-04T00:22:35.263Z,89.87
2018-07-04T00:23:35.243Z,90.53
2018-07-04T00:24:35.235Z,89.87
2018-07-04T00:25:35.238Z,89.92
2018-07-04T00:26:35.213Z,89.97
2018-07-04T00:27:35.223Z,90.38
2018-07-04T00:28:35.196Z,89.81
2018-07-04T00:29:35.205Z,90.01
2018-07-04T00:30:35.175Z,90.12
2018-07-04T00:31:35.161Z,89.92
2018-07-04T00:32:35.153Z,91.24
2018-07-04T00:33:35.140Z,92.46
2018-07-04T00:34:35.132Z,90.94
2018-07-04T00:35:35.117Z,91.14
2018-07-04T00:36:35.106Z,91.14
2018-07-04T00:37:35.095Z,91.96
2018-07-04T00:38:35.081Z,90.94
2018-07-04T00:39:35.078Z,90.01
2018-07-04T00:40:35.064Z,89.61
2018-07-04T00:41:35.080Z,89.51
2018-07-04T00:42:35.045Z,89.51
2018-07-04T00:43:35.027Z,90.53
2018-07-04T00:44:35.019Z,91.03
2018-07-04T00:45:35.009Z,91.35
2018-07-04T00:46:34.996Z,91.65
2018-07-04T00:47:34.993Z,92.26
2018-07-04T00:48:34.978Z,92.26
2018-07-04T00:49:34.964Z,92.67
2018-07-04T00:50:34.952Z,93.69
2018-07-04T00:51:34.947Z,94.09
2018-07-04T00:52:34.937Z,93.59
2018-07-04T00:53:34.925Z,92.67
2018-07-04T00:54:34.915Z,92.93
2018-07-04T00:55:34.905Z,93.48
2018-07-04T00:56:34.893Z,92.46
2018-07-04T00:57:34.879Z,92.22
2018-07-04T00:58:34.865Z,91.61
2018-07-04T00:59:34.860Z,91.50
2018-07-04T01:00:34.848Z,91.09
2018-07-04T01:01:34.837Z,91.50
2018-07-04T01:02:34.848Z,91.71
2018-07-04T01:03:34.810Z,90.99
2018-07-04T01:04:34.801Z,93.03
2018-07-04T01:05:34.795Z,93.13
2018-07-04T01:06:34.788Z,93.33
2018-07-04T01:07:34.795Z,93.33
2018-07-04T01:08:34.759Z,92.93
2018-07-04T01:09:34.756Z,92.32
2018-07-04T01:10:34.738Z,92.63
2018-07-04T01:11:34.731Z,92.83
2018-07-04T01:12:34.720Z,93.60
2018-07-04T01:13:34.709Z,93.74
2018-07-04T01:14:34.699Z,93.33
2018-07-04T01:15:34.683Z,92.72
2018-07-04T01:16:34.672Z,92.11
2018-07-04T01:17:34.661Z,92.18
2018-07-04T01:18:34.655Z,92.48
2018-07-04T01:19:34.644Z,92.99
2018-07-04T01:20:34.634Z,92.44
2018-07-04T01:21:34.618Z,91.26
2018-07-04T01:22:34.604Z,90.03
2018-07-04T01:23:34.603Z,90.03
2018-07-04T01:24:34.588Z,91.26
2018-07-04T01:25:34.577Z,91.31
2018-07-04T01:26:34.573Z,91.83
2018-07-04T01:27:34.551Z,91.31
2018-07-04T01:28:34.573Z,91.83
2018-07-04T01:29:34.537Z,92.23
2018-07-04T01:30:34.520Z,91.72
2018-07-04T01:31:34.512Z,91.31
2018-07-04T01:32:34.502Z,90.81
2018-07-04T01:33:34.495Z,91.42
2018-07-04T01:34:34.486Z,90.81
2018-07-04T01:35:34.464Z,90.60
2018-07-04T01:36:34.457Z,90.16
2018-07-04T01:37:34.451Z,90.77
2018-07-04T01:38:34.460Z,91.58
2018-07-04T01:39:34.424Z,92.49
2018-07-04T01:40:34.414Z,90.97
2018-07-04T01:41:34.404Z,92.19
2018-07-04T01:42:34.389Z,92.25
2018-07-04T01:43:34.386Z,92.45
2018-07-04T01:44:34.375Z,91.58
2018-07-04T01:45:34.362Z,88.89
2018-07-04T01:46:34.357Z,90.92
2018-07-04T01:47:34.336Z,89.61
2018-07-04T01:48:34.328Z,91.23
2018-07-04T01:49:34.319Z,90.83
2018-07-04T01:50:34.304Z,90.22
2018-07-04T01:51:34.299Z,89.40
2018-07-04T01:52:34.289Z,89.70
2018-07-04T01:53:34.274Z,89.61
2018-07-04T01:54:34.262Z,88.44
2018-07-04T01:55:34.258Z,88.34
2018-07-04T01:56:34.244Z,89.66
2018-07-04T01:57:34.236Z,89.56
2018-07-04T01:58:34.225Z,88.65
2018-07-04T01:59:34.239Z,89.05
2018-07-04T02:00:34.199Z,89.15
2018-07-04T02:01:34.188Z,87.32
2018-07-04T02:02:34.175Z,87.23
2018-07-04T02:03:34.171Z,89.56
2018-07-04T02:04:34.158Z,89.36
2018-07-04T02:05:34.157Z,88.95
2018-07-04T02:06:34.140Z,88.65
2018-07-04T02:07:34.121Z,86.41
2018-07-04T02:08:34.112Z,85.49
2018-07-04T02:09:34.104Z,87.23
2018-07-04T02:10:34.098Z,87.08
2018-07-04T02:11:34.078Z,86.16
2018-07-04T02:12:34.069Z,86.27
2018-07-04T02:13:34.059Z,86.37
2018-07-04T02:14:34.046Z,87.04
2018-07-04T02:15:34.042Z,85.25
2018-07-04T02:16:34.029Z,84.91
2018-07-04T02:17:34.018Z,84.91
2018-07-04T02:18:34.009Z,83.89
2018-07-04T02:19:33.992Z,82.98
2018-07-04T02:20:34.030Z,84.80
2018-07-04T02:21:33.972Z,82.98
2018-07-04T02:22:33.958Z,82.67
2018-07-04T02:23:33.954Z,83.18
2018-07-04T02:24:33.941Z,83.08
2018-07-04T02:25:33.956Z,82.37
2018-07-04T02:26:33.917Z,82.98
2018-07-04T02:27:33.911Z,83.08
2018-07-04T02:28:33.898Z,82.23
2018-07-04T02:29:33.887Z,81.76
2018-07-04T02:30:33.878Z,82.78
2018-07-04T02:31:33.867Z,85.27
2018-07-04T02:32:33.851Z,83.08
2018-07-04T02:33:33.841Z,82.23
2018-07-04T02:34:33.828Z,84.97
2018-07-04T02:35:33.823Z,85.98
2018-07-04T02:36:33.812Z,86.43
2018-07-04T02:37:33.801Z,85.17
2018-07-04T02:38:33.791Z,81.92
2018-07-04T02:39:33.774Z,84.05
2018-07-04T02:40:33.766Z,85.17
2018-07-04T02:41:33.782Z,84.97
2018-07-04T02:42:33.749Z,83.85
2018-07-04T02:43:33.732Z,83.65
2018-07-04T02:44:33.732Z,84.87
2018-07-04T02:45:33.711Z,84.46
2018-07-04T02:46:33.697Z,85.47
2018-07-04T02:47:33.698Z,83.75
2018-07-04T02:48:33.682Z,82.33
2018-07-04T02:49:33.671Z,82.03
2018-07-04T02:50:33.663Z,81.92
2018-07-04T02:51:33.646Z,83.04
2018-07-04T02:52:33.637Z,85.88
2018-07-04T02:53:33.625Z,85.38
2018-07-04T02:54:33.617Z,85.27
2018-07-04T02:55:33.607Z,85.17
2018-07-04T02:56:33.594Z,85.07
2018-07-04T02:57:33.588Z,86.08
2018-07-04T02:58:33.567Z,86.90
2018-07-04T02:59:33.563Z,89.74
2018-07-04T03:00:33.597Z,91.16
2018-07-04T03:01:33.539Z,91.77
2018-07-04T03:02:33.599Z,91.67
2018-07-04T03:03:33.513Z,90.66
2018-07-04T03:04:33.552Z,88.56
2018-07-04T03:05:33.542Z,89.17
2018-07-04T03:06:33.482Z,88.97
2018-07-04T03:07:33.505Z,90.39
2018-07-04T03:08:33.464Z,90.70
2018-07-04T03:09:33.455Z,89.17
2018-07-04T03:10:33.445Z,89.48
2018-07-04T03:11:33.427Z,91.20
2018-07-04T03:12:33.419Z,90.45
2018-07-04T03:13:33.412Z,87.81
2018-07-04T03:14:33.401Z,88.97
2018-07-04T03:15:33.383Z,88.56
2018-07-04T03:16:33.375Z,89.33
2018-07-04T03:17:33.371Z,88.42
2018-07-04T03:18:33.378Z,89.13
2018-07-04T03:19:33.347Z,87.92
2018-07-04T03:20:33.334Z,84.56
2018-07-04T03:21:33.323Z,87.00
2018-07-04T03:22:33.318Z,86.69
2018-07-04T03:23:33.297Z,85.17
2018-07-04T03:24:33.289Z,84.66
2018-07-04T03:25:33.280Z,84.66
2018-07-04T03:26:33.264Z,87.00
2018-07-04T03:27:33.260Z,85.03
2018-07-04T03:28:33.252Z,85.44
2018-07-04T03:29:33.252Z,85.13
2018-07-04T03:30:33.224Z,85.13
2018-07-04T03:31:33.219Z,85.44
2018-07-04T03:32:33.204Z,85.33
2018-07-04T03:33:33.193Z,87.16
2018-07-04T03:34:33.214Z,83.77
2018-07-04T03:35:33.166Z,89.15
2018-07-04T03:36:33.158Z,88.58
2018-07-04T03:37:33.147Z,90.71
2018-07-04T03:38:33.134Z,93.15
2018-07-04T03:39:33.133Z,93.45
2018-07-04T03:40:33.141Z,92.54
2018-07-04T03:41:33.108Z,90.75
2018-07-04T03:42:33.097Z,89.23
2018-07-04T03:43:33.082Z,86.80
2018-07-04T03:44:33.075Z,87.85
2018-07-04T03:45:33.084Z,89.37
2018-07-04T03:46:33.057Z,90.80
2018-07-04T03:47:33.037Z,90.90
2018-07-04T03:48:33.031Z,87.45
2018-07-04T03:49:33.017Z,91.00
2018-07-04T03:50:33.032Z,90.80
2018-07-04T03:51:33.000Z,91.91
2018-07-04T03:52:32.987Z,91.14
2018-07-04T03:53:32.978Z,89.22
2018-07-04T03:54:32.965Z,89.98
2018-07-04T03:55:32.954Z,89.48
2018-07-04T03:56:32.943Z,89.48
2018-07-04T03:57:32.929Z,91.20
2018-07-04T03:58:32.923Z,92.42
2018-07-04T03:59:32.917Z,93.24
2018-07-04T04:00:32.917Z,94.56
2018-07-04T04:01:32.885Z,95.06
2018-07-04T04:02:32.877Z,94.05
2018-07-04T04:03:32.869Z,93.48
2018-07-04T04:04:32.861Z,93.44
2018-07-04T04:05:32.875Z,91.91
2018-07-04T04:06:32.835Z,91.82
2018-07-04T04:07:32.823Z,92.32
2018-07-04T04:08:32.810Z,93.24
2018-07-04T04:09:32.800Z,92.52
2018-07-04T04:10:32.789Z,94.56
2018-07-04T04:11:32.788Z,94.05
2018-07-04T04:12:32.773Z,93.44
2018-07-04T04:13:32.762Z,93.13
2018-07-04T04:14:32.757Z,93.74
2018-07-04T04:15:32.736Z,94.76
2018-07-04T04:16:32.725Z,94.56
2018-07-04T04:17:32.720Z,94.86
2018-07-04T04:18:32.705Z,94.05
2018-07-04T04:19:32.692Z,93.44
2018-07-04T04:20:32.679Z,92.02
2018-07-04T04:21:32.675Z,91.91
2018-07-04T04:22:32.673Z,94.45
2018-07-04T04:23:32.652Z,94.25
2018-07-04T04:24:32.642Z,93.44
2018-07-04T04:25:32.641Z,93.40
2018-07-04T04:26:32.649Z,94.15
2018-07-04T04:27:32.605Z,93.84
2018-07-04T04:28:32.592Z,93.03
2018-07-04T04:29:32.581Z,93.09
2018-07-04T04:30:32.573Z,93.13
2018-07-04T04:31:32.590Z,92.52
2018-07-04T04:32:32.561Z,92.12
2018-07-04T04:33:32.561Z,92.18
2018-07-04T04:34:32.529Z,92.38
2018-07-04T04:35:32.521Z,92.38
2018-07-04T04:36:32.513Z,92.28
2018-07-04T04:37:32.504Z,91.67
2018-07-04T04:38:32.489Z,91.87
2018-07-04T04:39:32.477Z,92.07
2018-07-04T04:40:32.462Z,90.35
2018-07-04T04:41:32.463Z,91.47
2018-07-04T04:42:32.455Z,92.28
2018-07-04T04:43:32.467Z,93.19
2018-07-04T04:44:32.430Z,92.07
2018-07-04T04:45:32.418Z,92.58
2018-07-04T04:46:32.401Z,93.19
2018-07-04T04:47:32.389Z,92.38
2018-07-04T04:48:32.374Z,92.64
2018-07-04T04:49:32.373Z,92.94
2018-07-04T04:50:32.360Z,92.03
2018-07-04T04:51:32.348Z,92.44
2018-07-04T04:52:32.361Z,90.51
2018-07-04T04:53:32.322Z,91.22
2018-07-04T04:54:32.312Z,91.73
2018-07-04T04:55:32.314Z,92.03
2018-07-04T04:56:32.295Z,92.24
2018-07-04T04:57:32.283Z,93.30
2018-07-04T04:58:32.288Z,89.25
2018-07-04T04:59:32.261Z,90.57
2018-07-04T05:00:32.248Z,89.15
2018-07-04T05:01:32.236Z,91.17
2018-07-04T05:02:32.231Z,91.68
2018-07-04T05:03:32.244Z,89.65
2018-07-04T05:04:32.208Z,89.21
2018-07-04T05:05:32.210Z,88.90
2018-07-04T05:06:32.183Z,88.80
2018-07-04T05:07:32.175Z,89.21
2018-07-04T05:08:32.165Z,88.86
2018-07-04T05:09:32.157Z,88.86
2018-07-04T05:10:32.149Z,89.81
2018-07-04T05:11:32.151Z,87.95
2018-07-04T05:12:32.132Z,88.15
2018-07-04T05:13:32.111Z,88.72
2018-07-04T05:14:32.112Z,88.96
2018-07-04T05:15:32.089Z,89.67
2018-07-04T05:16:32.079Z,88.62
2018-07-04T05:17:32.081Z,89.12
2018-07-04T05:18:32.059Z,87.20
2018-07-04T05:19:32.045Z,87.60
2018-07-04T05:20:32.029Z,87.10
2018-07-04T05:21:32.025Z,87.81
2018-07-04T05:22:32.014Z,89.02
2018-07-04T05:23:31.999Z,88.48
2018-07-04T05:24:32.013Z,86.85
2018-07-04T05:25:31.976Z,86.85
2018-07-04T05:26:31.966Z,85.84
2018-07-04T05:27:31.958Z,86.65
2018-07-04T05:28:31.950Z,89.28
2018-07-04T05:29:31.944Z,87.02
2018-07-04T05:30:31.939Z,88.17
2018-07-04T05:31:31.924Z,87.32
2018-07-04T05:32:31.908Z,88.02
2018-07-04T05:33:31.891Z,89.10
2018-07-04T05:34:31.882Z,85.19
2018-07-04T05:35:31.894Z,85.30
2018-07-04T05:36:31.865Z,84.04
2018-07-04T05:37:31.847Z,87.18
2018-07-04T05:38:31.840Z,84.85
2018-07-04T05:39:31.848Z,84.41
2018-07-04T05:40:31.850Z,81.88
2018-07-04T05:41:31.816Z,80.80
2018-07-04T05:42:31.799Z,81.98
2018-07-04T05:43:31.788Z,79.35
2018-07-04T05:44:31.773Z,77.29
2018-07-04T05:45:31.761Z,81.54
2018-07-04T05:46:31.754Z,80.53
2018-07-04T05:47:31.750Z,81.94
2018-07-04T05:48:31.741Z,82.24
2018-07-04T05:49:31.724Z,79.72
2018-07-04T05:50:31.730Z,75.48
2018-07-04T05:51:31.852Z,77.86
2018-07-04T05:52:31.766Z,79.68
2018-07-04T05:53:31.749Z,80.55
2018-07-04T05:54:31.666Z,83.18
2018-07-04T05:55:31.656Z,79.14
2018-07-04T05:56:31.654Z,78.94
2018-07-04T05:57:31.629Z,75.98
2018-07-04T05:58:31.635Z,78.39
2018-07-04T05:59:31.633Z,78.26
2018-07-04T06:00:31.631Z,74.22
2018-07-04T06:01:31.599Z,73.42
2018-07-04T06:02:31.581Z,74.08
2018-07-04T06:03:31.565Z,77.01
2018-07-04T06:04:31.568Z,75.20
2018-07-04T06:05:31.541Z,77.51
2018-07-04T06:06:31.535Z,72.67
2018-07-04T06:07:31.524Z,72.98
2018-07-04T06:08:31.515Z,72.74
2018-07-04T06:09:31.499Z,73.65
2018-07-04T06:10:31.489Z,73.75
2018-07-04T06:11:31.483Z,75.16
2018-07-04T06:12:31.477Z,70.59
2018-07-04T06:13:31.484Z,71.50
2018-07-04T06:14:31.449Z,70.79
2018-07-04T06:15:31.439Z,68.44
2018-07-04T06:16:31.445Z,69.76
2018-07-04T06:17:31.417Z,67.34
2018-07-04T06:18:31.405Z,69.52
2018-07-04T06:19:31.398Z,71.23
2018-07-04T06:20:31.386Z,74.01
2018-07-04T06:21:31.404Z,71.40
2018-07-04T06:22:31.362Z,72.50
2018-07-04T06:23:31.350Z,69.09
2018-07-04T06:24:31.360Z,72.37
2018-07-04T06:25:31.333Z,68.35
2018-07-04T06:26:31.328Z,68.32
2018-07-04T06:27:31.310Z,68.21
2018-07-04T06:28:31.293Z,68.21
2018-07-04T06:29:31.282Z,70.09
2018-07-04T06:30:31.275Z,70.89
2018-07-04T06:31:31.266Z,66.88
2018-07-04T06:32:31.368Z,65.57
2018-07-04T06:33:31.248Z,64.64
2018-07-04T06:34:31.233Z,65.24
2018-07-04T06:35:31.221Z,63.93
2018-07-04T06:36:31.209Z,61.72
2018-07-04T06:37:31.224Z,65.74
2018-07-04T06:38:31.186Z,64.84
2018-07-04T06:39:31.179Z,63.40
2018-07-04T06:40:31.175Z,66.64
2018-07-04T06:41:31.156Z,66.14
2018-07-04T06:42:31.145Z,64.43
2018-07-04T06:43:31.144Z,62.23
2018-07-04T06:44:31.129Z,65.84
2018-07-04T06:45:31.117Z,68.55
2018-07-04T06:46:31.107Z,65.14
2018-07-04T06:47:31.102Z,66.08
2018-07-04T06:48:31.111Z,67.18
2018-07-04T06:49:31.069Z,68.08
2018-07-04T06:50:31.061Z,65.77
2018-07-04T06:51:31.051Z,62.86
2018-07-04T06:52:31.041Z,63.36
2018-07-04T06:53:31.034Z,66.88
2018-07-04T06:54:31.097Z,64.87
2018-07-04T06:55:31.006Z,65.37
2018-07-04T06:56:30.996Z,69.59
2018-07-04T06:57:30.988Z,66.88
2018-07-04T06:58:31.005Z,64.97
2018-07-04T06:59:30.961Z,67.98
2018-07-04T07:00:30.949Z,63.76
2018-07-04T07:01:30.937Z,64.27
2018-07-04T07:02:30.929Z,67.78
2018-07-04T07:03:30.924Z,64.14
2018-07-04T07:04:30.913Z,64.34
2018-07-04T07:05:30.902Z,67.14
2018-07-04T07:06:30.888Z,69.02
2018-07-04T07:07:30.884Z,71.13
2018-07-04T07:08:30.910Z,68.02
2018-07-04T07:09:30.851Z,66.55
2018-07-04T07:10:30.845Z,66.61
2018-07-04T07:11:30.838Z,68.55
2018-07-04T07:12:30.829Z,64.31
2018-07-04T07:13:30.810Z,64.40
2018-07-04T07:14:30.874Z,67.82
2018-07-04T07:15:30.797Z,71.43
2018-07-04T07:16:30.791Z,68.42
2018-07-04T07:17:30.788Z,62.60
2018-07-04T07:18:30.810Z,67.42
2018-07-04T07:19:32.809Z,69.22
2018-07-04T07:20:30.733Z,69.49
2018-07-04T07:21:30.722Z,68.19
2018-07-04T07:22:30.714Z,67.38
2018-07-04T07:23:30.708Z,67.69
2018-07-04T07:24:30.698Z,66.55
2018-07-04T07:25:30.686Z,70.39
2018-07-04T07:26:30.673Z,68.96
2018-07-04T07:27:30.695Z,67.76
2018-07-04T07:28:30.653Z,66.45
2018-07-04T07:29:30.650Z,64.54
2018-07-04T07:30:30.631Z,64.51
2018-07-04T07:31:30.618Z,67.02
2018-07-04T07:32:30.609Z,67.52
2018-07-04T07:33:30.618Z,62.98
2018-07-04T07:34:30.614Z,61.68
2018-07-04T07:35:30.575Z,61.45
2018-07-04T07:36:30.567Z,69.76
2018-07-04T07:37:30.556Z,64.86
2018-07-04T07:38:30.551Z,67.76
2018-07-04T07:39:30.530Z,61.95
2018-07-04T07:40:30.516Z,63.42
2018-07-04T07:41:30.512Z,64.32
2018-07-04T07:42:30.498Z,65.92
2018-07-04T07:43:30.514Z,64.69
2018-07-04T07:44:30.481Z,65.09
2018-07-04T07:45:30.475Z,62.49
2018-07-04T07:46:30.455Z,64.19
2018-07-04T07:47:30.455Z,58.29
2018-07-04T07:48:30.439Z,63.19
2018-07-04T07:49:30.430Z,66.46
2018-07-04T07:50:30.416Z,64.66
2018-07-04T07:51:30.401Z,59.56
2018-07-04T07:52:30.388Z,66.63
2018-07-04T07:53:30.380Z,62.73
2018-07-04T07:54:30.458Z,62.01
2018-07-04T07:55:30.361Z,61.51
2018-07-04T07:56:30.360Z,61.51
2018-07-04T07:57:30.345Z,61.60
2018-07-04T07:58:30.328Z,65.20
2018-07-04T07:59:30.320Z,59.21
2018-07-04T08:00:30.302Z,59.11
2018-07-04T08:01:30.306Z,58.61
2018-07-04T08:02:30.297Z,59.68
2018-07-04T08:03:30.283Z,58.88
2018-07-04T08:04:30.335Z,62.07
2018-07-04T08:05:30.273Z,59.38
2018-07-04T08:06:30.267Z,55.79
2018-07-04T08:07:30.258Z,59.55
2018-07-04T08:08:30.292Z,57.95
2018-07-04T08:09:30.261Z,57.65
2018-07-04T08:10:30.245Z,59.55
2018-07-04T08:11:30.207Z,59.45
2018-07-04T08:12:30.191Z,59.85
2018-07-04T08:13:30.174Z,59.45
2018-07-04T08:14:30.187Z,56.56
2018-07-04T08:15:30.147Z,57.93
2018-07-04T08:16:30.142Z,56.63
2018-07-04T08:17:30.131Z,58.29
2018-07-04T08:18:30.116Z,58.59
2018-07-04T08:19:30.104Z,59.19
2018-07-04T08:20:30.096Z,57.70
2018-07-04T08:21:30.092Z,60.56
2018-07-04T08:22:30.091Z,55.80
2018-07-04T08:23:30.203Z,56.68
2018-07-04T08:24:30.056Z,54.38
2018-07-04T08:25:30.054Z,56.95
2018-07-04T08:26:30.032Z,54.36
2018-07-04T08:27:30.022Z,54.93
2018-07-04T08:28:30.022Z,56.89
2018-07-04T08:29:29.996Z,53.41
2018-07-04T08:30:29.990Z,55.50
2018-07-04T08:31:29.984Z,52.09
2018-07-04T08:32:29.971Z,54.25
2018-07-04T08:33:29.961Z,54.93
2018-07-04T08:34:29.975Z,52.51
2018-07-04T08:35:29.946Z,52.59
2018-07-04T08:36:29.939Z,51.00
2018-07-04T08:37:29.921Z,52.56
2018-07-04T08:38:29.907Z,50.56
2018-07-04T08:39:29.897Z,52.22
2018-07-04T08:40:29.906Z,47.83
2018-07-04T08:41:29.873Z,51.40
2018-07-04T08:42:29.868Z,46.52
2018-07-04T08:43:29.862Z,47.89
2018-07-04T08:44:29.850Z,47.31
2018-07-04T08:45:29.859Z,44.42
2018-07-04T08:46:29.829Z,47.56
2018-07-04T08:47:29.817Z,48.43
2018-07-04T08:48:29.806Z,43.69
2018-07-04T08:49:29.804Z,47.64
2018-07-04T08:50:29.818Z,47.25
2018-07-04T08:51:29.778Z,48.41
2018-07-04T08:52:29.769Z,49.18
2018-07-04T08:53:29.754Z,49.25
2018-07-04T08:54:29.746Z,42.14
2018-07-04T08:55:29.749Z,45.50
2018-07-04T08:56:29.735Z,43.33
2018-07-04T08:57:29.729Z,41.83
2018-07-04T08:58:29.763Z,40.53
2018-07-04T08:59:29.699Z,45.06
2018-07-04T09:00:29.685Z,41.02
2018-07-04T09:01:29.678Z,44.45
2018-07-04T09:02:29.668Z,44.27
2018-07-04T09:03:29.662Z,43.66
2018-07-04T09:04:29.666Z,44.65
2018-07-04T09:05:29.683Z,44.62
2018-07-04T09:06:29.634Z,43.03
2018-07-04T09:07:29.623Z,40.76
2018-07-04T09:08:29.624Z,41.45
2018-07-04T09:09:29.607Z,41.25
2018-07-04T09:10:29.638Z,42.02
2018-07-04T09:11:29.656Z,39.95
2018-07-04T09:12:29.584Z,42.41
2018-07-04T09:13:29.558Z,39.74
2018-07-04T09:14:29.552Z,42.12
2018-07-04T09:15:29.547Z,41.93
2018-07-04T09:16:29.541Z,42.73
2018-07-04T09:17:29.530Z,42.22
2018-07-04T09:18:29.516Z,40.74
2018-07-04T09:19:29.505Z,42.99
2018-07-04T09:20:29.492Z,38.66
2018-07-04T09:21:29.514Z,42.61
2018-07-04T09:22:29.477Z,42.00
2018-07-04T09:23:29.465Z,42.69
2018-07-04T09:24:29.478Z,41.19
2018-07-04T09:25:29.444Z,38.84
2018-07-04T09:26:29.439Z,43.41
2018-07-04T09:27:29.433Z,44.27
2018-07-04T09:28:29.422Z,40.74
2018-07-04T09:29:29.561Z,40.64
2018-07-04T09:30:29.402Z,40.62
2018-07-04T09:31:29.408Z,39.53
2018-07-04T09:32:29.395Z,37.58
2018-07-04T09:33:29.370Z,43.19
2018-07-04T09:34:29.367Z,38.68
2018-07-04T09:35:29.358Z,38.98
2018-07-04T09:36:29.361Z,39.07
2018-07-04T09:37:29.369Z,43.19
2018-07-04T09:38:29.388Z,40.70
2018-07-04T09:39:29.322Z,40.88
2018-07-04T09:40:29.316Z,39.61
2018-07-04T09:41:29.306Z,41.05
2018-07-04T09:42:29.294Z,38.70
2018-07-04T09:43:29.286Z,38.78
2018-07-04T09:44:29.272Z,37.73
2018-07-04T09:45:29.264Z,36.65
2018-07-04T09:46:29.254Z,37.02
2018-07-04T09:47:29.251Z,37.79
2018-07-04T09:48:29.247Z,37.51
2018-07-04T09:49:29.229Z,34.98
2018-07-04T09:50:29.218Z,35.17
2018-07-04T09:51:29.205Z,36.06
2018-07-04T09:52:29.223Z,40.95
2018-07-04T09:53:29.216Z,37.65
2018-07-04T09:54:29.197Z,38.74
2018-07-04T09:55:29.166Z,38.56
2018-07-04T09:56:29.154Z,38.88
2018-07-04T09:57:29.147Z,38.11
2018-07-04T09:58:29.153Z,41.92
2018-07-04T09:59:29.162Z,38.98
2018-07-04T10:00:29.130Z,40.25
2018-07-04T10:01:29.129Z,41.14
2018-07-04T10:02:29.098Z,38.09
2018-07-04T10:03:29.084Z,40.64
2018-07-04T10:04:29.076Z,39.56
2018-07-04T10:05:29.066Z,39.06
2018-07-04T10:06:29.055Z,39.64
2018-07-04T10:07:29.051Z,39.27
2018-07-04T10:08:29.044Z,42.10
2018-07-04T10:09:29.033Z,38.76
2018-07-04T10:10:29.018Z,39.94
2018-07-04T10:11:29.014Z,40.53
2018-07-04T10:12:29.007Z,41.51
2018-07-04T10:13:29.000Z,42.00
2018-07-04T10:14:28.981Z,40.62
2018-07-04T10:15:28.968Z,40.53
2018-07-04T10:16:28.954Z,43.74
2018-07-04T10:17:28.941Z,42.18
2018-07-04T10:18:28.936Z,43.04
2018-07-04T10:19:28.948Z,43.80
2018-07-04T10:20:28.943Z,35.76
2018-07-04T10:21:28.908Z,41.33
2018-07-04T10:22:28.899Z,39.69
2018-07-04T10:23:28.884Z,39.96
2018-07-04T10:24:28.906Z,39.86
2018-07-04T10:25:28.875Z,38.21
2018-07-04T10:26:28.858Z,38.68
2018-07-04T10:27:28.845Z,39.07
2018-07-04T10:28:28.834Z,37.31
2018-07-04T10:29:28.825Z,37.13
2018-07-04T10:30:28.829Z,39.37
2018-07-04T10:31:28.811Z,39.86
2018-07-04T10:32:28.801Z,39.17
2018-07-04T10:33:28.789Z,39.76
2018-07-04T10:34:28.779Z,43.41
2018-07-04T10:35:28.769Z,34.10
2018-07-04T10:36:28.755Z,39.76
2018-07-04T10:37:28.744Z,33.89
2018-07-04T10:38:28.739Z,36.22
2018-07-04T10:39:28.730Z,33.00
2018-07-04T10:40:28.742Z,33.10
2018-07-04T10:41:28.707Z,32.20
2018-07-04T10:42:28.701Z,33.97
2018-07-04T10:43:28.710Z,34.34
2018-07-04T10:44:28.688Z,32.39
2018-07-04T10:45:28.698Z,32.19
2018-07-04T10:46:28.666Z,34.24
2018-07-04T10:47:28.655Z,33.56
2018-07-04T10:48:28.644Z,36.02
2018-07-04T10:49:28.637Z,34.54
2018-07-04T10:50:28.660Z,34.45
2018-07-04T10:51:28.667Z,35.22
2018-07-04T10:52:28.635Z,34.14
2018-07-04T10:53:28.602Z,38.61
2018-07-04T10:54:28.589Z,36.43
2018-07-04T10:55:28.577Z,28.59
2018-07-04T10:56:28.568Z,28.18
2018-07-04T10:57:28.566Z,30.94
2018-07-04T10:58:28.562Z,28.01
2018-07-04T10:59:28.538Z,25.98
2018-07-04T11:00:28.534Z,28.91
2018-07-04T11:01:28.539Z,32.03
2018-07-04T11:02:28.509Z,30.37
2018-07-04T11:03:28.528Z,30.38
2018-07-04T11:04:28.503Z,28.63
2018-07-04T11:05:28.486Z,30.20
2018-07-04T11:06:28.475Z,28.16
2018-07-04T11:07:28.460Z,28.38
2018-07-04T11:08:28.450Z,29.27
2018-07-04T11:09:28.443Z,28.89
2018-07-04T11:10:28.428Z,33.41
2018-07-04T11:11:28.451Z,30.94
2018-07-04T11:12:28.415Z,28.30
2018-07-04T11:13:28.397Z,30.15
2018-07-04T11:14:28.390Z,30.74
2018-07-04T11:15:28.383Z,30.07
2018-07-04T11:16:28.406Z,33.02
2018-07-04T11:17:28.368Z,30.96
2018-07-04T11:18:28.357Z,31.26
2018-07-04T11:19:28.352Z,29.88
2018-07-04T11:20:28.334Z,30.29
2018-07-04T11:21:28.335Z,30.98
2018-07-04T11:22:28.325Z,32.35
2018-07-04T11:23:28.357Z,31.86
2018-07-04T11:24:28.351Z,31.83
2018-07-04T11:25:28.298Z,30.85
2018-07-04T11:26:28.293Z,29.38
2018-07-04T11:27:28.291Z,29.27
2018-07-04T11:28:28.332Z,33.54
2018-07-04T11:29:28.266Z,29.91
2018-07-04T11:30:28.260Z,30.87
2018-07-04T11:31:28.258Z,29.10
2018-07-04T11:32:28.268Z,27.22
2018-07-04T11:33:28.225Z,27.51
2018-07-04T11:34:28.246Z,31.22
2018-07-04T11:35:28.210Z,29.56
2018-07-04T11:36:28.206Z,28.55
2018-07-04T11:37:28.213Z,27.45
2018-07-04T11:38:28.240Z,27.94
2018-07-04T11:39:28.177Z,26.65
2018-07-04T11:40:28.186Z,29.36
2018-07-04T11:41:28.166Z,27.04
2018-07-04T11:42:28.165Z,25.79
2018-07-04T11:43:28.216Z,26.10
2018-07-04T11:44:28.138Z,26.21
2018-07-04T11:45:28.127Z,29.22
2018-07-04T11:46:28.118Z,28.96
2018-07-04T11:47:28.116Z,27.40
2018-07-04T11:48:28.110Z,28.40
2018-07-04T11:49:28.144Z,29.70
2018-07-04T11:50:28.090Z,29.44
2018-07-04T11:51:28.073Z,29.36
2018-07-04T11:52:28.064Z,32.23
2018-07-04T11:53:28.055Z,29.46
2018-07-04T11:54:28.053Z,31.42
2018-07-04T11:55:28.046Z,33.89
2018-07-04T11:56:28.065Z,31.63
2018-07-04T11:57:28.026Z,31.84
2018-07-04T11:58:28.015Z,30.98
2018-07-04T11:59:28.029Z,30.50
2018-07-04T12:00:27.990Z,32.38
2018-07-04T12:01:27.987Z,33.58
2018-07-04T12:02:27.977Z,33.20
2018-07-04T12:03:27.964Z,33.69
2018-07-04T12:04:27.956Z,32.79
2018-07-04T12:05:27.982Z,33.00
2018-07-04T12:06:27.936Z,32.43
2018-07-04T12:07:27.927Z,35.10
2018-07-04T12:08:27.921Z,35.08
2018-07-04T12:09:27.918Z,34.97
2018-07-04T12:10:27.930Z,32.43
2018-07-04T12:11:27.887Z,34.16
2018-07-04T12:12:27.875Z,33.07
2018-07-04T12:13:27.865Z,31.99
2018-07-04T12:14:27.864Z,34.74
2018-07-04T12:15:27.853Z,32.10
2018-07-04T12:16:27.848Z,35.23
2018-07-04T12:17:27.828Z,32.09
2018-07-04T12:18:27.820Z,31.94
2018-07-04T12:19:27.813Z,35.14
2018-07-04T12:20:27.807Z,32.01
2018-07-04T12:21:27.826Z,32.97
2018-07-04T12:22:27.791Z,31.90
2018-07-04T12:23:27.773Z,30.71
2018-07-04T12:24:27.761Z,33.90
2018-07-04T12:25:27.753Z,30.18
2018-07-04T12:26:27.745Z,30.19
2018-07-04T12:27:27.741Z,29.11
2018-07-04T12:28:27.730Z,30.38
2018-07-04T12:29:27.720Z,29.41
2018-07-04T12:30:27.713Z,30.08
2018-07-04T12:31:27.728Z,31.75
2018-07-04T12:32:27.689Z,29.41
2018-07-04T12:33:27.683Z,29.81
2018-07-04T12:34:27.677Z,32.17
2018-07-04T12:35:27.668Z,34.13
2018-07-04T12:36:27.652Z,31.90
2018-07-04T12:37:27.713Z,33.97
2018-07-04T12:38:27.629Z,30.26
2018-07-04T12:39:27.627Z,32.06
2018-07-04T12:40:27.658Z,32.17
2018-07-04T12:41:27.605Z,32.50
2018-07-04T12:42:27.601Z,32.81
2018-07-04T12:43:27.638Z,34.87
2018-07-04T12:44:27.573Z,34.59
2018-07-04T12:45:27.565Z,35.99
2018-07-04T12:46:27.571Z,36.10
2018-07-04T12:47:27.641Z,36.33
2018-07-04T12:48:27.566Z,34.86
2018-07-04T12:49:27.531Z,36.25
2018-07-04T12:50:27.527Z,36.46
2018-07-04T12:51:27.511Z,36.46
2018-07-04T12:52:27.499Z,36.96